createdAt,value
2022-11-05T00:00:47.573Z,99613.44
2022-11-05T00:04:08.213Z,99621.47
2022-11-05T00:07:36.314Z,99615.34
2022-11-05T00:10:39.295Z,99622.94
2022-11-05T00:14:00.204Z,99627.53
2022-11-05T00:17:02.371Z,99637.47
2022-11-05T00:20:06.321Z,99631.34
2022-11-05T00:23:27.204Z,99624.44
2022-11-05T00:26:33.607Z,99629.78
2022-11-05T00:29:36.061Z,99625.59
2022-11-05T00:32:38.424Z,99627.47
2022-11-05T00:35:41.583Z,99621.72
2022-11-05T00:38:43.766Z,99617.13
2022-11-05T00:42:05.903Z,99616.38
2022-11-05T00:45:08.530Z,99616.72
2022-11-05T00:48:29.292Z,99617.50
2022-11-05T00:51:31.549Z,99616.72
2022-11-05T00:54:33.706Z,99612.50
2022-11-05T00:57:35.891Z,99618.59
2022-11-05T01:00:40.599Z,99618.19
2022-11-05T01:03:45.107Z,99617.41
2022-11-05T01:06:51.083Z,99617.00
2022-11-05T01:09:53.275Z,99621.59
2022-11-05T01:12:55.833Z,99621.59
2022-11-05T01:15:58.296Z,99628.06
2022-11-05T01:19:02.133Z,99637.66
2022-11-05T01:22:04.318Z,99631.53
2022-11-05T01:25:07.540Z,99621.16
2022-11-05T01:28:10.475Z,99625.41
2022-11-05T01:31:12.666Z,99619.63
2022-11-05T01:34:14.905Z,99612.72
2022-11-05T01:37:17.618Z,99611.63
2022-11-05T01:40:22.471Z,99607.75
2022-11-05T01:43:24.693Z,99614.63
2022-11-05T01:46:34.130Z,99610.44
2022-11-05T01:49:36.344Z,99616.91
2022-11-05T01:52:38.705Z,99622.25
2022-11-05T01:55:46.105Z,99624.13
2022-11-05T01:58:52.427Z,99626.06
2022-11-05T02:01:55.239Z,99637.09
2022-11-05T02:05:03.235Z,99640.16
2022-11-05T02:08:06.562Z,99650.47
2022-11-05T02:11:09.171Z,99656.97
2022-11-05T02:14:11.315Z,99650.84
2022-11-05T02:17:28.152Z,99643.19
2022-11-05T02:20:58.461Z,99635.16
2022-11-05T02:24:03.420Z,99637.06
2022-11-05T02:27:26.895Z,99646.97
2022-11-05T02:30:58.457Z,99655.00
2022-11-05T02:34:14.215Z,99651.53
2022-11-05T02:37:34.961Z,99650.03
2022-11-05T02:40:40.114Z,99653.44
2022-11-05T02:43:55.105Z,99644.22
2022-11-05T02:47:18.356Z,99657.25
2022-11-05T02:51:05.155Z,99654.19
2022-11-05T02:54:19.394Z,99654.94
2022-11-05T02:57:22.636Z,99643.03
2022-11-05T03:00:55.419Z,99649.94
2022-11-05T03:04:00.830Z,99651.84
2022-11-05T03:07:29.249Z,99664.44
2022-11-05T03:11:13.910Z,99661.00
2022-11-05T03:14:32.484Z,99663.25
2022-11-05T03:17:53.769Z,99670.16
2022-11-05T03:21:17.830Z,99663.19
2022-11-05T03:24:45.168Z,99665.50
2022-11-05T03:27:50.599Z,99666.66
2022-11-05T03:30:56.828Z,99675.78
2022-11-05T03:34:01.174Z,99692.25
2022-11-05T03:37:05.293Z,99683.47
2022-11-05T03:40:10.206Z,99671.22
2022-11-05T03:43:14.567Z,99681.91
2022-11-05T03:46:41.753Z,99683.03
2022-11-05T03:49:59.084Z,99685.28
2022-11-05T03:53:09.828Z,99691.78
2022-11-05T03:56:19.098Z,99696.75
2022-11-05T03:59:22.605Z,99691.00
2022-11-05T04:02:27.206Z,99694.00
2022-11-05T04:05:29.539Z,99695.56
2022-11-05T04:08:50.255Z,99702.03
2022-11-05T04:12:10.960Z,99691.34
2022-11-05T04:15:13.283Z,99683.31
2022-11-05T04:18:15.456Z,99687.13
2022-11-05T04:21:39.289Z,99681.38
2022-11-05T04:24:41.502Z,99678.31
2022-11-05T04:27:44.426Z,99689.03
2022-11-05T04:30:46.603Z,99691.28
2022-11-05T04:33:49.065Z,99689.72
2022-11-05T04:36:53.381Z,99677.91
2022-11-05T04:39:55.612Z,99666.44
2022-11-05T04:42:58.432Z,99667.59
2022-11-05T04:46:00.601Z,99674.81
2022-11-05T04:49:02.773Z,99674.81
2022-11-05T04:52:05.157Z,99666.03
2022-11-05T04:55:08.344Z,99678.63
2022-11-05T04:58:10.487Z,99684.75
2022-11-05T05:01:17.256Z,99684.75
2022-11-05T05:04:20.664Z,99688.19
2022-11-05T05:07:22.982Z,99695.81
2022-11-05T05:10:25.155Z,99696.91
2022-11-05T05:13:27.379Z,99690.00
2022-11-05T05:16:29.560Z,99698.41
2022-11-05T05:19:54.012Z,99697.63
2022-11-05T05:22:56.374Z,99698.03
2022-11-05T05:26:00.410Z,99695.72
2022-11-05T05:29:03.598Z,99693.03
2022-11-05T05:32:06.425Z,99694.53
2022-11-05T05:35:09.161Z,99701.75
2022-11-05T05:38:11.303Z,99704.03
2022-11-05T05:41:13.508Z,99715.50
2022-11-05T05:44:15.788Z,99709.38
2022-11-05T05:47:17.970Z,99718.53
2022-11-05T05:50:20.152Z,99716.97
2022-11-05T05:53:28.052Z,99713.19
2022-11-05T05:56:32.874Z,99721.19
2022-11-05T05:59:35.088Z,99732.22
2022-11-05T06:02:37.376Z,99744.78
2022-11-05T06:05:39.618Z,99746.00
2022-11-05T06:08:42.723Z,99754.03
2022-11-05T06:11:44.954Z,99755.94
2022-11-05T06:14:47.533Z,99761.28
2022-11-05T06:17:49.796Z,99760.50
2022-11-05T06:20:51.954Z,99764.63
2022-11-05T06:23:54.165Z,99766.16
2022-11-05T06:26:56.382Z,99773.44
2022-11-05T06:29:58.572Z,99771.44
2022-11-05T06:33:05.201Z,99777.22
2022-11-05T06:36:15.058Z,99786.78
2022-11-05T06:39:17.235Z,99790.59
2022-11-05T06:42:19.670Z,99789.91
2022-11-05T06:45:22.068Z,99786.47
2022-11-05T06:48:25.433Z,99794.50
2022-11-05T06:51:27.675Z,99798.25
2022-11-05T06:54:29.861Z,99803.28
2022-11-05T06:57:32.076Z,99804.06
2022-11-05T07:00:34.365Z,99811.59
2022-11-05T07:03:37.959Z,99812.41
2022-11-05T07:06:40.153Z,99808.63
2022-11-05T07:09:43.255Z,99809.41
2022-11-05T07:12:45.509Z,99801.41
2022-11-05T07:15:47.781Z,99801.81
2022-11-05T07:18:50.028Z,99799.13
2022-11-05T07:21:52.436Z,99799.56
2022-11-05T07:24:54.677Z,99802.56
2022-11-05T07:27:56.922Z,99803.34
2022-11-05T07:30:59.231Z,99806.00
2022-11-05T07:34:01.747Z,99807.91
2022-11-05T07:37:05.137Z,99810.59
2022-11-05T07:40:07.772Z,99810.53
2022-11-05T07:43:10.456Z,99809.41
2022-11-05T07:46:13.912Z,99806.75
2022-11-05T07:49:16.745Z,99810.53
2022-11-05T07:52:19.144Z,99807.84
2022-11-05T07:55:21.334Z,99810.94
2022-11-05T07:58:23.495Z,99817.06
2022-11-05T08:01:26.168Z,99820.09
2022-11-05T08:04:28.494Z,99813.63
2022-11-05T08:07:30.726Z,99813.25
2022-11-05T08:10:34.141Z,99814.41
2022-11-05T08:13:37.506Z,99806.75
2022-11-05T08:16:39.722Z,99807.91
2022-11-05T08:19:42.033Z,99806.75
2022-11-05T08:22:45.460Z,99812.84
2022-11-05T08:25:47.599Z,99809.41
2022-11-05T08:28:49.764Z,99802.94
2022-11-05T08:31:55.004Z,99801.03
2022-11-05T08:34:57.156Z,99803.69
2022-11-05T08:38:02.648Z,99786.19
2022-11-05T08:41:05.392Z,99796.53
2022-11-05T08:44:10.416Z,99793.06
2022-11-05T08:47:12.592Z,99803.06
2022-11-05T08:50:14.827Z,99796.94
2022-11-05T08:53:18.173Z,99800.06
2022-11-05T08:56:20.603Z,99797.72
2022-11-05T08:59:22.839Z,99810.41
2022-11-05T09:02:26.436Z,99807.72
2022-11-05T09:05:30.129Z,99808.50
2022-11-05T09:08:32.424Z,99816.53
2022-11-05T09:12:05.352Z,99819.53
2022-11-05T09:14:57.063Z,99821.44
2022-11-05T09:17:59.917Z,99843.59
2022-11-05T09:21:02.074Z,99826.81
2022-11-05T09:24:04.493Z,99839.03
2022-11-05T09:27:10.268Z,99836.34
2022-11-05T09:30:13.559Z,99837.13
2022-11-05T09:33:17.800Z,99847.81
2022-11-05T09:36:19.984Z,99856.97
2022-11-05T09:39:22.156Z,99848.94
2022-11-05T09:42:30.613Z,99841.69
2022-11-05T09:45:40.641Z,99842.47
2022-11-05T09:48:48.453Z,99839.03
2022-11-05T09:51:54.139Z,99834.47
2022-11-05T09:54:57.680Z,99841.00
2022-11-05T09:58:03.474Z,99835.66
2022-11-05T10:01:11.482Z,99839.13
2022-11-05T10:04:23.040Z,99836.06
2022-11-05T10:07:30.944Z,99840.66
2022-11-05T10:10:47.585Z,99843.00
2022-11-05T10:13:56.767Z,99844.53
2022-11-05T10:17:17.314Z,99832.72
2022-11-05T10:20:35.952Z,99841.16
2022-11-05T10:23:44.713Z,99836.59
2022-11-05T10:26:50.427Z,99832.44
2022-11-05T10:29:52.971Z,99819.84
2022-11-05T10:33:01.898Z,99822.94
2022-11-05T10:36:07.799Z,99817.59
2022-11-05T10:39:13.421Z,99821.00
2022-11-05T10:42:43.698Z,99831.38
2022-11-05T10:46:27.814Z,99834.84
2022-11-05T10:50:02.008Z,99831.00
2022-11-05T10:53:19.934Z,99841.72
2022-11-05T10:56:37.154Z,99843.28
2022-11-05T10:59:39.368Z,99845.16
2022-11-05T11:02:43.455Z,99839.81
2022-11-05T11:05:45.890Z,99855.88
2022-11-05T11:08:49.919Z,99855.88
2022-11-05T11:11:56.813Z,99855.50
2022-11-05T11:15:23.508Z,99853.97
2022-11-05T11:18:40.296Z,99853.19
2022-11-05T11:21:44.081Z,99861.22
2022-11-05T11:24:49.483Z,99861.22
2022-11-05T11:27:53.114Z,99849.72
2022-11-05T11:31:11.815Z,99855.88
2022-11-05T11:34:27.689Z,99852.06
2022-11-05T11:37:42.155Z,99857.44
2022-11-05T11:40:45.355Z,99864.66
2022-11-05T11:43:47.966Z,99859.75
2022-11-05T11:46:53.261Z,99855.94
2022-11-05T11:49:58.117Z,99854.81
2022-11-05T11:53:36.020Z,99872.75
2022-11-05T11:56:46.692Z,99856.69
2022-11-05T12:00:07.876Z,99858.25
2022-11-05T12:03:49.712Z,99852.13
2022-11-05T12:07:18.136Z,99851.72
2022-11-05T12:10:35.667Z,99856.28
2022-11-05T12:13:56.504Z,99856.66
2022-11-05T12:17:02.976Z,99855.09
2022-11-05T12:20:20.028Z,99856.97
2022-11-05T12:23:42.567Z,99853.88
2022-11-05T12:27:02.432Z,99861.91
2022-11-05T12:30:14.066Z,99873.75
2022-11-05T12:33:22.449Z,99874.06
2022-11-05T12:36:38.415Z,99879.00
2022-11-05T12:39:40.538Z,99887.38
2022-11-05T12:43:01.118Z,99886.59
2022-11-05T12:46:21.838Z,99883.16
2022-11-05T12:49:42.716Z,99888.50
2022-11-05T12:52:58.508Z,99888.88
2022-11-05T12:56:06.661Z,99903.34
2022-11-05T12:59:14.582Z,99898.34
2022-11-05T13:02:43.928Z,99892.16
2022-11-05T13:06:40.294Z,99899.81
2022-11-05T13:09:51.986Z,99910.88
2022-11-05T13:13:29.373Z,99918.81
2022-11-05T13:16:51.473Z,99916.91
2022-11-05T13:20:17.012Z,99923.38
2022-11-05T13:23:35.144Z,99924.50
2022-11-05T13:26:50.349Z,99929.09
2022-11-05T13:30:04.983Z,99927.09
2022-11-05T13:33:27.663Z,99927.09
2022-11-05T13:37:13.461Z,99913.66
2022-11-05T13:40:21.052Z,99928.13
2022-11-05T13:43:23.216Z,99925.47
2022-11-05T13:46:41.056Z,99927.69
2022-11-05T13:50:09.409Z,99931.47
2022-11-05T13:53:41.070Z,99934.50
2022-11-05T13:57:18.719Z,99933.28
2022-11-05T14:00:36.647Z,99932.88
2022-11-05T14:03:53.441Z,99940.09
2022-11-05T14:07:06.537Z,99946.56
2022-11-05T14:10:27.121Z,99935.09
2022-11-05T14:13:39.318Z,99943.47
2022-11-05T14:17:09.343Z,99949.94
2022-11-05T14:20:33.405Z,99951.06
2022-11-05T14:23:40.985Z,99942.25
2022-11-05T14:26:43.216Z,99957.88
2022-11-05T14:29:49.921Z,99962.44
2022-11-05T14:33:03.942Z,99955.53
2022-11-05T14:36:21.345Z,99970.00
2022-11-05T14:39:29.029Z,99973.03
2022-11-05T14:42:31.632Z,99975.72
2022-11-05T14:45:52.337Z,99974.94
2022-11-05T14:49:09.186Z,99977.19
2022-11-05T14:52:16.973Z,99983.63
2022-11-05T14:55:38.561Z,99984.78
2022-11-05T14:58:43.326Z,99982.84
2022-11-05T15:01:45.587Z,99986.66
2022-11-05T15:04:52.720Z,99989.66
2022-11-05T15:07:57.545Z,99996.56
2022-11-05T15:11:32.959Z,99990.44
2022-11-05T15:14:40.485Z,99988.13
2022-11-05T15:17:53.152Z,99996.47
2022-11-05T15:20:58.881Z,100006.72
2022-11-05T15:24:03.057Z,99994.50
2022-11-05T15:27:40.232Z,100001.38
2022-11-05T15:30:56.840Z,100009.38
2022-11-05T15:34:26.693Z,100007.41
2022-11-05T15:37:28.909Z,100018.09
2022-11-05T15:40:32.961Z,100021.53
2022-11-05T15:43:35.244Z,100019.22
2022-11-05T15:46:37.405Z,100029.91
2022-11-05T15:49:41.808Z,100029.91
2022-11-05T15:52:53.863Z,100027.91
2022-11-05T15:56:01.928Z,100034.47
2022-11-05T15:59:19.080Z,100029.81
2022-11-05T16:02:30.551Z,100030.94
2022-11-05T16:05:35.554Z,100028.25
2022-11-05T16:08:37.793Z,100038.16
2022-11-05T16:11:40.388Z,100036.59
2022-11-05T16:14:42.721Z,100051.88
2022-11-05T16:17:46.593Z,100056.44
2022-11-05T16:21:10.911Z,100059.88
2022-11-05T16:24:28.124Z,100061.78
2022-11-05T16:27:31.655Z,100069.00
2022-11-05T16:30:34.119Z,100078.91
2022-11-05T16:33:46.185Z,100074.69
2022-11-05T16:36:48.615Z,100071.56
2022-11-05T16:39:52.130Z,100082.72
2022-11-05T16:42:55.279Z,100083.03
2022-11-05T16:46:00.252Z,100083.81
2022-11-05T16:49:02.755Z,100084.94
2022-11-05T16:52:12.951Z,100088.72
2022-11-05T16:55:16.803Z,100094.06
2022-11-05T16:58:22.472Z,100100.53
2022-11-05T17:01:25.460Z,100101.66
2022-11-05T17:04:27.946Z,100099.78
2022-11-05T17:07:38.498Z,100110.44
2022-11-05T17:10:43.711Z,100111.56
2022-11-05T17:13:46.967Z,100113.44
2022-11-05T17:16:51.802Z,100121.03
2022-11-05T17:19:54.164Z,100119.91
2022-11-05T17:23:00.266Z,100120.25
2022-11-05T17:26:08.634Z,100120.25
2022-11-05T17:29:11.013Z,100128.25
2022-11-05T17:32:13.387Z,100134.38
2022-11-05T17:35:16.033Z,100135.47
2022-11-05T17:38:18.828Z,100132.81
2022-11-05T17:41:23.163Z,100138.94
2022-11-05T17:44:25.595Z,100141.94
2022-11-05T17:47:28.056Z,100149.97
2022-11-05T17:50:30.507Z,100149.19
2022-11-05T17:53:32.879Z,100154.88
2022-11-05T17:56:40.298Z,100150.63
2022-11-05T17:59:45.712Z,100155.97
2022-11-05T18:02:49.704Z,100156.31
2022-11-05T18:05:52.205Z,100159.31
2022-11-05T18:08:54.615Z,100156.66
2022-11-05T18:11:57.043Z,100156.66
2022-11-05T18:14:59.407Z,100162.34
2022-11-05T18:18:01.847Z,100160.44
2022-11-05T18:21:04.532Z,100173.00
2022-11-05T18:24:07.770Z,100175.34
2022-11-05T18:27:10.305Z,100174.91
2022-11-05T18:30:16.095Z,100180.59
2022-11-05T18:33:18.483Z,100177.91
2022-11-05T18:36:26.326Z,100192.81
2022-11-05T18:39:28.715Z,100186.72
2022-11-05T18:42:31.094Z,100201.16
2022-11-05T18:45:33.617Z,100202.28
2022-11-05T18:48:36.537Z,100205.72
2022-11-05T18:51:38.943Z,100217.53
2022-11-05T18:54:43.807Z,100214.09
2022-11-05T18:57:46.215Z,100217.84
2022-11-05T19:00:48.664Z,100219.75
2022-11-05T19:03:51.518Z,100223.19
2022-11-05T19:06:54.473Z,100235.75
2022-11-05T19:09:59.196Z,100238.00
2022-11-05T19:13:01.584Z,100244.13
2022-11-05T19:16:10.884Z,100241.78
2022-11-05T19:19:13.403Z,100245.22
2022-11-05T19:22:15.812Z,100250.56
2022-11-05T19:25:18.174Z,100252.00
2022-11-05T19:28:20.545Z,100252.47
2022-11-05T19:31:23.739Z,100261.59
2022-11-05T19:34:26.191Z,100266.94
2022-11-05T19:37:28.574Z,100271.47
2022-11-05T19:40:30.992Z,100261.50
2022-11-05T19:43:34.936Z,100280.63
2022-11-05T19:46:37.311Z,100273.72
2022-11-05T19:49:39.657Z,100276.38
2022-11-05T19:52:42.499Z,100277.16
2022-11-05T19:55:45.153Z,100288.94
2022-11-05T19:58:49.079Z,100293.53
2022-11-05T20:01:51.597Z,100290.06
2022-11-05T20:04:54.113Z,100304.22
2022-11-05T20:07:56.623Z,100303.44
2022-11-05T20:10:59.178Z,100302.66
2022-11-05T20:14:02.298Z,100311.44
2022-11-05T20:17:05.442Z,100319.44
2022-11-05T20:20:08.312Z,100314.41
2022-11-05T20:23:11.561Z,100324.34
2022-11-05T20:26:15.238Z,100317.44
2022-11-05T20:29:17.724Z,100324.66
2022-11-05T20:32:20.107Z,100322.34
2022-11-05T20:35:23.872Z,100331.88
2022-11-05T20:38:26.317Z,100335.34
2022-11-05T20:41:29.098Z,100329.22
2022-11-05T20:44:31.542Z,100339.13
2022-11-05T20:47:34.451Z,100336.47
2022-11-05T20:50:43.989Z,100343.69
2022-11-05T20:53:47.196Z,100340.25
2022-11-05T20:56:49.832Z,100342.91
2022-11-05T20:59:52.294Z,100340.25
2022-11-05T21:02:54.925Z,100341.34
2022-11-05T21:06:00.120Z,100349.34
2022-11-05T21:09:03.826Z,100349.34
2022-11-05T21:12:12.564Z,100350.47
2022-11-05T21:15:15.301Z,100351.13
2022-11-05T21:18:19.409Z,100360.38
2022-11-05T21:21:21.797Z,100354.25
2022-11-05T21:24:24.393Z,100358.78
2022-11-05T21:27:27.151Z,100353.78
2022-11-05T21:30:29.557Z,100357.25
2022-11-05T21:33:33.503Z,100351.13
2022-11-05T21:36:35.939Z,100348.00
2022-11-05T21:39:38.289Z,100356.03
2022-11-05T21:42:40.748Z,100354.13
2022-11-05T21:45:45.201Z,100356.03
2022-11-05T21:48:47.803Z,100353.66
2022-11-05T21:52:09.272Z,100357.59
2022-11-05T21:55:31.551Z,100364.03
2022-11-05T21:58:52.802Z,100365.13
2022-11-05T22:02:01.491Z,100358.22
2022-11-05T22:05:05.405Z,100363.88
2022-11-05T22:08:07.837Z,100356.19
2022-11-05T22:11:10.308Z,100363.56
2022-11-05T22:14:12.707Z,100364.66
2022-11-05T22:17:15.582Z,100367.31
2022-11-05T22:20:18.155Z,100356.97
2022-11-05T22:23:20.508Z,100366.53
2022-11-05T22:26:23.026Z,100374.53
2022-11-05T22:29:26.365Z,100363.13
2022-11-05T22:32:28.781Z,100361.19
2022-11-05T22:35:31.223Z,100358.88
2022-11-05T22:38:33.831Z,100360.44
2022-11-05T22:41:36.400Z,100360.75
2022-11-05T22:44:38.817Z,100371.44
2022-11-05T22:47:42.142Z,100381.31
2022-11-05T22:50:44.299Z,100374.44
2022-11-05T22:53:47.117Z,100375.22
2022-11-05T22:56:50.318Z,100367.53
2022-11-05T22:59:52.500Z,100371.00
2022-11-05T23:02:54.826Z,100373.66
2022-11-05T23:06:31.277Z,100372.09
2022-11-05T23:09:53.618Z,100376.66
2022-11-05T23:12:55.852Z,100373.22
2022-11-05T23:16:16.632Z,100376.66
2022-11-05T23:19:37.961Z,100380.44
2022-11-05T23:22:58.845Z,100378.88
2022-11-05T23:26:21.284Z,100383.88
2022-11-05T23:29:26.218Z,100378.09
2022-11-05T23:32:31.124Z,100388.78
2022-11-05T23:35:53.083Z,100393.66
2022-11-05T23:38:55.241Z,100401.97
2022-11-05T23:42:16.008Z,100400.88
2022-11-05T23:45:36.902Z,100402.78
2022-11-05T23:48:39.115Z,100398.53
2022-11-05T23:51:41.369Z,100403.13
2022-11-05T23:54:43.550Z,100408.09
2022-11-05T23:57:45.884Z,100399.31
